Terminal Aerodrome Forecast
Issued by NWS

Home | Current Version | Previous Version | Text Only | Print | Product List | Glossary On
Versions: 1 2 3 4 5 6 7 8 9 10 11 12 13 14 15
000
FTUS42 KJAX 101722
TAFVQQ
TAF
KVQQ 101722Z 1018/1118 04011KT P6SM SCT030
     FM102300 03008KT P6SM SCT030
     FM110600 03005KT P6SM BKN030
     FM111500 09007KT P6SM VCSH BKN040=

USA.gov is the U.S. government's official web portal to all federal, state and local government web resources and services.